sim
Sign-in with your pilot id or email,
or register
Callsign
Passwort

Schedule Details

Flight Number: EWG7526 (2)
Departure: Hamburg Airport (EDDH) at 10:35
Arrival: Fuerteventura Airport (GCFV) at 15:35
Route: Eurowings Passenger Schedule. Enter filed route here before submitting Pirep.

Weather Information
Getting current METAR information for EDDH 160220Z 15003KT CAVOK 02/M01 Q1025 NOSIG
Getting current METAR information for GCFV 160230Z AUTO 28005KT 9999 NCD 13/10 Q1018

Schedule Frequency

Route Map